Time;durP1;ratioP1;P1;durP2;ratioP2;P2;SDS_P1;SDS_P2;PMS_P1;PMS_P2;Temp;Humidity;BMP_temperature;BMP_pressure;BME280_temperature;BME280_humidity;BME280_pressure;Samples;Min_cycle;Max_cycle;Signal;HPM_P1;HPM_P2
2022/01/03 00:00:19;;;;;;;6.88;1.35;;;11.10;89.30;;;;;;4987892;28;20060;-82
2022/01/03 00:02:44;;;;;;;5.00;0.90;;;11.00;89.40;;;;;;5020405;28;20508;-82
2022/01/03 00:05:10;;;;;;;7.28;1.40;;;11.00;89.60;;;;;;5020549;28;20060;-82
2022/01/03 00:07:42;;;;;;;8.05;1.20;;;11.00;89.80;;;;;;5018953;28;20064;-81
2022/01/03 00:10:08;;;;;;;6.75;1.50;;;10.90;90.00;;;;;;5033387;28;20044;-82
2022/01/03 00:12:34;;;;;;;3.85;0.90;;;10.90;90.00;;;;;;5037542;28;20521;-82
2022/01/03 00:15:00;;;;;;;3.50;0.95;;;10.90;90.10;;;;;;4987913;28;20051;-82
2022/01/03 00:17:25;;;;;;;10.07;1.30;;;10.90;90.20;;;;;;5018553;28;20048;-82
2022/01/03 00:19:51;;;;;;;5.53;1.92;;;10.80;90.20;;;;;;5018760;28;20041;-82
2022/01/03 00:22:19;;;;;;;6.38;1.42;;;10.80;90.30;;;;;;5031200;28;20151;-81
2022/01/03 00:24:46;;;;;;;4.03;1.02;;;10.70;90.30;;;;;;5006997;28;20037;-81
2022/01/03 00:27:14;;;;;;;3.95;1.25;;;10.70;90.40;;;;;;5014193;28;20044;-83
2022/01/03 00:29:45;;;;;;;5.22;1.30;;;10.70;90.40;;;;;;5019419;28;20048;-81
2022/01/03 00:32:13;;;;;;;4.63;1.10;;;10.70;90.50;;;;;;5021325;28;20045;-82
2022/01/03 00:34:38;;;;;;;2.92;1.25;;;10.70;90.60;;;;;;5025840;28;20032;-83
2022/01/03 00:37:06;;;;;;;4.18;1.20;;;10.70;90.70;;;;;;5021642;28;20036;-82
2022/01/03 00:39:31;;;;;;;3.38;1.00;;;10.60;90.80;;;;;;5014613;28;20037;-82
2022/01/03 00:41:58;;;;;;;1.85;0.90;;;10.60;90.70;;;;;;5025790;28;20414;-81
2022/01/03 00:44:24;;;;;;;2.72;0.80;;;10.60;90.80;;;;;;5024838;28;20048;-81
2022/01/03 00:46:49;;;;;;;1.60;0.63;;;10.50;90.80;;;;;;5018118;28;20088;-82
2022/01/03 00:49:15;;;;;;;0.65;0.52;;;10.50;90.90;;;;;;5012233;28;20040;-81
2022/01/03 00:51:40;;;;;;;2.55;0.35;;;10.50;90.90;;;;;;5024178;28;20037;-81
2022/01/03 00:54:06;;;;;;;1.65;0.30;;;10.40;90.90;;;;;;5019430;28;20080;-83
2022/01/03 00:56:36;;;;;;;1.67;0.28;;;10.30;90.90;;;;;;5029776;28;20847;-81
2022/01/03 00:59:04;;;;;;;0.35;0.20;;;10.30;90.90;;;;;;5013058;28;20033;-82
2022/01/03 01:01:29;;;;;;;0.35;0.20;;;10.20;90.90;;;;;;5022491;28;20527;-82
2022/01/03 01:03:55;;;;;;;0.25;0.10;;;10.20;91.00;;;;;;5001836;28;20036;-81
2022/01/03 01:06:21;;;;;;;0.93;0.30;;;10.20;91.00;;;;;;5003937;28;20049;-81
2022/01/03 01:08:47;;;;;;;3.00;0.30;;;10.10;91.00;;;;;;5001611;28;20038;-81
2022/01/03 01:11:13;;;;;;;1.67;0.40;;;10.10;91.00;;;;;;4980730;28;20040;-81
2022/01/03 01:13:41;;;;;;;1.25;0.40;;;10.10;91.10;;;;;;5005864;28;20155;-81
2022/01/03 01:16:07;;;;;;;2.28;0.70;;;10.10;91.10;;;;;;5002199;28;20076;-81
2022/01/03 01:18:36;;;;;;;2.47;0.50;;;10.10;91.20;;;;;;5018245;28;20545;-81
2022/01/03 01:21:03;;;;;;;2.47;0.55;;;10.10;91.20;;;;;;5022599;28;20029;-81
2022/01/03 01:23:29;;;;;;;0.98;0.45;;;10.10;91.30;;;;;;5020804;28;20420;-81
2022/01/03 01:28:20;;;;;;;2.03;0.75;;;10.10;91.30;;;;;;5012613;28;20408;-81
2022/01/03 01:30:45;;;;;;;1.45;0.50;;;10.10;91.30;;;;;;5000967;28;20037;-81
2022/01/03 01:33:13;;;;;;;3.17;0.55;;;10.10;91.30;;;;;;4995556;28;20152;-82
2022/01/03 01:35:56;;;;;;;2.22;0.70;;;10.10;91.30;;;;;;5018190;28;20032;-82
2022/01/03 01:38:23;;;;;;;4.10;0.60;;;10.10;91.40;;;;;;5000949;28;20040;-81
2022/01/03 01:40:51;;;;;;;3.83;0.45;;;10.10;91.30;;;;;;5022190;28;20143;-81
2022/01/03 01:43:39;;;;;;;2.28;0.50;;;10.10;91.40;;;;;;5012647;28;20041;-81
2022/01/03 01:46:08;;;;;;;3.17;0.70;;;10.10;91.40;;;;;;5002797;28;20045;-82
2022/01/03 01:48:35;;;;;;;1.67;0.50;;;10.10;91.40;;;;;;5016918;28;20041;-83
2022/01/03 01:51:00;;;;;;;0.77;0.38;;;10.10;91.40;;;;;;4982458;28;20103;-80
2022/01/03 01:53:26;;;;;;;1.83;0.40;;;10.10;91.40;;;;;;5015557;28;20057;-81
2022/01/03 01:55:53;;;;;;;1.30;0.60;;;10.00;91.40;;;;;;5013035;28;20105;-81
2022/01/03 01:58:37;;;;;;;2.80;0.50;;;10.00;91.40;;;;;;5028167;28;20580;-81
2022/01/03 02:01:06;;;;;;;3.90;0.52;;;10.00;91.40;;;;;;5015584;28;20046;-81
2022/01/03 02:03:46;;;;;;;3.60;0.60;;;10.00;91.50;;;;;;5036739;28;20048;-81
2022/01/03 02:06:20;;;;;;;2.92;0.30;;;10.00;91.50;;;;;;5001744;28;20431;-80
2022/01/03 02:09:09;;;;;;;3.35;0.60;;;9.90;91.50;;;;;;5016588;28;20497;-80
2022/01/03 02:11:49;;;;;;;2.80;0.60;;;9.90;91.50;;;;;;5017288;28;20029;-81
2022/01/03 02:14:14;;;;;;;1.33;0.55;;;9.90;91.50;;;;;;5021922;28;20036;-81
2022/01/03 02:16:41;;;;;;;4.47;0.52;;;9.90;91.50;;;;;;5003063;28;20029;-80
2022/01/03 02:19:06;;;;;;;1.70;0.55;;;9.90;91.60;;;;;;5011058;28;20034;-81
2022/01/03 02:21:32;;;;;;;1.73;0.70;;;9.80;91.60;;;;;;5031978;28;20092;-81
2022/01/03 02:23:57;;;;;;;1.67;0.50;;;9.80;91.60;;;;;;5015348;28;20029;-82
2022/01/03 02:26:23;;;;;;;1.80;0.50;;;9.80;91.60;;;;;;5015898;28;20475;-80
2022/01/03 02:28:48;;;;;;;2.97;0.45;;;9.80;91.60;;;;;;5018693;28;20882;-81
2022/01/03 02:31:17;;;;;;;0.73;0.28;;;9.80;91.60;;;;;;5012652;28;20514;-81
2022/01/03 02:33:43;;;;;;;2.05;0.47;;;9.80;91.60;;;;;;5012335;28;20553;-82
2022/01/03 02:36:09;;;;;;;2.88;0.40;;;9.80;91.60;;;;;;5026385;28;20029;-82
2022/01/03 02:38:34;;;;;;;1.02;0.40;;;9.80;91.60;;;;;;5014442;28;20040;-80
2022/01/03 02:41:00;;;;;;;2.05;0.50;;;9.80;92.00;;;;;;5014912;28;20067;-81
2022/01/03 02:43:25;;;;;;;1.58;0.40;;;9.80;91.60;;;;;;5022874;28;20056;-81
2022/01/03 02:45:51;;;;;;;5.95;0.63;;;9.70;91.60;;;;;;5011644;28;20912;-81
2022/01/03 02:48:17;;;;;;;1.58;0.55;;;9.70;91.60;;;;;;5012278;28;20593;-81
2022/01/03 02:50:43;;;;;;;2.35;0.60;;;9.70;92.00;;;;;;4996840;28;20045;-81
2022/01/03 02:53:08;;;;;;;0.40;0.38;;;9.70;91.60;;;;;;5001007;28;20096;-80
2022/01/03 02:55:34;;;;;;;1.95;0.50;;;9.70;91.60;;;;;;5011314;28;20033;-80
2022/01/03 02:58:06;;;;;;;1.45;0.63;;;9.70;91.60;;;;;;5013024;28;20193;-81
2022/01/03 03:00:31;;;;;;;2.10;0.40;;;9.60;91.60;;;;;;4981253;28;20041;-80
2022/01/03 03:02:57;;;;;;;4.45;0.50;;;9.60;91.60;;;;;;5017632;28;20087;-81
2022/01/03 03:05:22;;;;;;;2.00;0.70;;;9.60;91.50;;;;;;5022725;28;20438;-81
2022/01/03 03:07:48;;;;;;;2.13;0.77;;;9.60;91.50;;;;;;4991364;28;20048;-81
2022/01/03 03:10:17;;;;;;;1.83;0.38;;;9.60;91.50;;;;;;5015873;28;20124;-81
2022/01/03 03:12:42;;;;;;;2.58;0.82;;;9.60;91.50;;;;;;5002114;28;20099;-81
2022/01/03 03:15:08;;;;;;;3.70;0.50;;;9.50;91.50;;;;;;5009597;28;20045;-81
2022/01/03 03:17:35;;;;;;;2.75;0.40;;;9.50;91.40;;;;;;5019532;28;20052;-80
2022/01/03 03:20:05;;;;;;;4.32;0.73;;;9.50;91.40;;;;;;5005646;28;20041;-81
2022/01/03 03:22:30;;;;;;;3.17;0.52;;;9.40;91.40;;;;;;5018632;28;20026;-80
2022/01/03 03:25:23;;;;;;;4.25;0.60;;;9.40;91.40;;;;;;5020567;28;20045;-81
2022/01/03 03:27:50;;;;;;;1.75;0.50;;;9.40;91.40;;;;;;5009316;28;20053;-80
2022/01/03 03:30:20;;;;;;;3.97;0.60;;;9.30;91.40;;;;;;5028177;28;20080;-80
2022/01/03 03:32:46;;;;;;;4.10;0.70;;;9.30;91.40;;;;;;5017923;28;20822;-80
2022/01/03 03:35:12;;;;;;;5.75;1.05;;;9.30;91.40;;;;;;5044753;28;20049;-80
2022/01/03 03:37:38;;;;;;;2.20;0.60;;;9.20;91.30;;;;;;5026559;28;20473;-80
2022/01/03 03:40:04;;;;;;;1.48;0.50;;;9.20;91.40;;;;;;5024602;28;20049;-81
2022/01/03 03:42:29;;;;;;;2.38;0.85;;;9.20;91.30;;;;;;4988658;28;20045;-81
2022/01/03 03:44:55;;;;;;;2.30;0.50;;;9.10;91.30;;;;;;5016161;28;20040;-81
2022/01/03 03:47:20;;;;;;;4.30;0.60;;;9.10;91.40;;;;;;5026954;28;20068;-80
2022/01/03 03:49:46;;;;;;;2.25;0.60;;;9.00;91.30;;;;;;5020691;28;20064;-80
2022/01/03 03:52:11;;;;;;;4.55;0.70;;;9.00;91.40;;;;;;4995505;28;20565;-80
2022/01/03 03:54:37;;;;;;;6.55;0.80;;;9.00;91.40;;;;;;5020058;28;20508;-81
2022/01/03 03:57:03;;;;;;;3.05;0.50;;;8.90;91.40;;;;;;5018824;28;20607;-80
2022/01/03 03:59:28;;;;;;;3.92;0.63;;;8.90;91.40;;;;;;5006739;28;20094;-81
2022/01/03 04:01:54;;;;;;;3.88;0.52;;;8.90;91.40;;;;;;5026866;28;20039;-80
2022/01/03 04:04:20;;;;;;;2.08;0.70;;;8.80;91.40;;;;;;5023591;28;20072;-80
2022/01/03 04:06:46;;;;;;;4.05;0.60;;;8.80;91.40;;;;;;5007022;28;20037;-80
2022/01/03 04:09:11;;;;;;;3.33;0.68;;;8.80;91.40;;;;;;5023156;28;20040;-80
2022/01/03 04:11:37;;;;;;;3.72;0.73;;;8.80;91.40;;;;;;5006002;28;20053;-81
2022/01/03 04:14:02;;;;;;;4.65;0.88;;;8.80;91.40;;;;;;5027542;28;20060;-80
2022/01/03 04:16:28;;;;;;;3.10;0.57;;;8.80;91.40;;;;;;5022461;28;20033;-81
2022/01/03 04:18:53;;;;;;;4.07;0.90;;;8.80;91.40;;;;;;5021781;28;20021;-80
2022/01/03 04:21:19;;;;;;;4.10;0.70;;;8.80;91.40;;;;;;5021978;28;20517;-80
2022/01/03 04:23:45;;;;;;;3.63;0.90;;;8.80;91.40;;;;;;5052127;28;20499;-80
2022/01/03 04:26:11;;;;;;;4.47;0.70;;;8.80;91.40;;;;;;5024505;28;20032;-80
2022/01/03 04:28:37;;;;;;;3.83;0.55;;;8.80;91.40;;;;;;5023754;28;20574;-81
2022/01/03 04:31:03;;;;;;;3.63;0.55;;;8.80;91.50;;;;;;5022916;28;20048;-81
2022/01/03 04:33:28;;;;;;;3.97;0.60;;;8.70;91.40;;;;;;4991339;28;20041;-81
2022/01/03 04:35:54;;;;;;;1.88;0.70;;;8.80;91.50;;;;;;5023041;28;20033;-80
2022/01/03 04:38:19;;;;;;;3.42;0.70;;;8.80;91.50;;;;;;5028568;28;20430;-81
2022/01/03 04:40:45;;;;;;;5.07;1.00;;;8.80;91.50;;;;;;5019300;28;20564;-81
2022/01/03 04:43:10;;;;;;;2.55;0.70;;;8.80;91.50;;;;;;5006938;28;20048;-81
2022/01/03 04:45:36;;;;;;;4.32;0.70;;;8.80;91.50;;;;;;4980315;28;20530;-80
2022/01/03 04:48:01;;;;;;;3.28;0.70;;;8.80;91.50;;;;;;5020749;28;20088;-80
2022/01/03 04:50:27;;;;;;;3.88;0.85;;;8.80;91.50;;;;;;5005609;28;20083;-81
2022/01/03 04:52:52;;;;;;;2.08;0.82;;;8.80;91.50;;;;;;5011040;28;20021;-81
2022/01/03 04:55:18;;;;;;;3.13;0.65;;;8.80;91.50;;;;;;5006820;28;20140;-80
2022/01/03 04:57:43;;;;;;;2.97;0.60;;;8.80;91.60;;;;;;5019602;28;20033;-80
2022/01/03 05:00:10;;;;;;;2.90;0.80;;;8.90;91.60;;;;;;5002909;28;20483;-80
2022/01/03 05:02:37;;;;;;;3.50;0.73;;;8.90;91.60;;;;;;5022132;28;20124;-81
2022/01/03 05:05:03;;;;;;;2.47;0.57;;;8.90;91.60;;;;;;5024925;28;20118;-81
2022/01/03 05:07:29;;;;;;;2.70;0.52;;;8.90;91.60;;;;;;5007335;28;20070;-81
2022/01/03 05:09:54;;;;;;;4.68;0.80;;;8.90;91.60;;;;;;4986992;28;20176;-81
2022/01/03 05:12:20;;;;;;;5.03;0.65;;;8.90;91.70;;;;;;5007381;28;20040;-81
2022/01/03 05:14:45;;;;;;;5.15;0.65;;;8.90;91.70;;;;;;4994612;28;20100;-81
2022/01/03 05:17:11;;;;;;;1.05;0.50;;;8.90;91.70;;;;;;5054579;28;20033;-82
2022/01/03 05:19:37;;;;;;;2.47;0.50;;;8.90;91.70;;;;;;5013683;28;20533;-81
2022/01/03 05:22:03;;;;;;;6.15;0.50;;;8.90;91.70;;;;;;5002320;28;20041;-81
2022/01/03 05:24:28;;;;;;;6.03;0.52;;;8.90;91.70;;;;;;4990479;28;20126;-80
2022/01/03 05:26:55;;;;;;;2.25;0.30;;;8.90;91.70;;;;;;5021326;28;21474;-81
2022/01/03 05:29:21;;;;;;;1.25;0.32;;;8.90;91.70;;;;;;5007392;28;20052;-80
2022/01/03 05:31:47;;;;;;;0.85;0.40;;;8.90;91.70;;;;;;5006564;28;20045;-81
2022/01/03 05:34:12;;;;;;;3.25;0.70;;;8.90;91.70;;;;;;5020778;28;20081;-81
2022/01/03 05:36:37;;;;;;;2.38;0.40;;;8.80;91.70;;;;;;5001736;28;20062;-78
2022/01/03 05:39:03;;;;;;;3.30;0.95;;;8.80;91.70;;;;;;5019274;28;20521;-81
2022/01/03 05:41:29;;;;;;;3.08;0.45;;;8.80;92.10;;;;;;5004888;28;20041;-81
2022/01/03 05:43:56;;;;;;;2.40;0.30;;;8.80;91.70;;;;;;5021695;28;20037;-80
2022/01/03 05:46:22;;;;;;;1.75;0.50;;;8.70;91.70;;;;;;5022415;28;20045;-80
2022/01/03 05:48:47;;;;;;;1.25;0.50;;;8.70;91.70;;;;;;5021550;28;20539;-80
2022/01/03 05:51:13;;;;;;;3.40;0.60;;;8.70;91.70;;;;;;5044012;28;20029;-80
2022/01/03 05:53:38;;;;;;;3.55;0.40;;;8.70;91.70;;;;;;5019562;28;20041;-79
2022/01/03 05:56:04;;;;;;;3.70;0.40;;;8.70;91.80;;;;;;5015297;28;20033;-82
2022/01/03 05:58:30;;;;;;;3.72;0.40;;;8.60;91.80;;;;;;5002594;28;20030;-79
2022/01/03 06:00:55;;;;;;;2.55;0.32;;;8.70;91.80;;;;;;4984357;28;20041;-80
2022/01/03 06:03:23;;;;;;;1.77;0.40;;;8.60;91.80;;;;;;5037630;28;20041;-80
2022/01/03 06:08:20;;;;;;;1.42;0.30;;;8.60;91.80;;;;;;5005098;28;20128;-81
2022/01/03 06:10:45;;;;;;;2.55;0.60;;;8.60;91.80;;;;;;5029882;28;20630;-80
2022/01/03 06:13:11;;;;;;;2.28;0.40;;;8.50;91.80;;;;;;5002212;28;20045;-80
2022/01/03 06:15:37;;;;;;;2.92;0.50;;;8.50;91.80;;;;;;5023953;28;20419;-80
2022/01/03 06:18:04;;;;;;;0.60;0.30;;;8.50;91.80;;;;;;5000964;28;20045;-79
2022/01/03 06:20:31;;;;;;;0.93;0.30;;;8.40;91.70;;;;;;5017739;28;20041;-80
2022/01/03 06:22:56;;;;;;;3.10;0.60;;;8.40;91.80;;;;;;5024885;28;20041;-79
2022/01/03 06:25:22;;;;;;;4.78;0.63;;;8.40;91.80;;;;;;5000865;28;20098;-80
2022/01/03 06:27:47;;;;;;;1.83;0.93;;;8.40;91.80;;;;;;5000855;28;20060;-80
2022/01/03 06:30:13;;;;;;;1.92;0.90;;;8.40;91.80;;;;;;4983967;28;20040;-80
2022/01/03 06:32:38;;;;;;;1.20;0.40;;;8.30;91.80;;;;;;5011910;28;20232;-80
2022/01/03 06:35:04;;;;;;;2.90;0.55;;;8.30;91.80;;;;;;5018962;28;20038;-81
2022/01/03 06:37:30;;;;;;;3.70;0.47;;;8.30;91.80;;;;;;5024343;28;20041;-80
2022/01/03 06:39:55;;;;;;;0.88;0.30;;;8.30;91.80;;;;;;5020855;28;20064;-80
2022/01/03 06:42:21;;;;;;;1.67;0.40;;;8.30;91.90;;;;;;5018138;28;20034;-80
2022/01/03 06:44:48;;;;;;;5.22;0.60;;;8.20;91.80;;;;;;5001483;28;20490;-80
2022/01/03 06:47:14;;;;;;;1.83;0.47;;;8.20;91.90;;;;;;5018006;28;20057;-80
2022/01/03 06:49:40;;;;;;;1.95;0.40;;;8.20;91.90;;;;;;5018463;28;20109;-81
2022/01/03 06:52:05;;;;;;;5.18;1.13;;;8.20;91.90;;;;;;5013510;28;20029;-80
2022/01/03 06:54:33;;;;;;;3.80;0.50;;;8.20;92.00;;;;;;5029669;28;20037;-80
2022/01/03 06:56:59;;;;;;;2.38;0.45;;;8.20;92.00;;;;;;5001751;28;20037;-81
2022/01/03 06:59:24;;;;;;;1.88;0.40;;;8.20;92.00;;;;;;4973632;28;20095;-80
2022/01/03 07:01:50;;;;;;;2.33;0.63;;;8.20;92.10;;;;;;5015581;28;20052;-81
2022/01/03 07:04:15;;;;;;;2.90;0.60;;;8.20;92.10;;;;;;4988660;28;20424;-80
2022/01/03 07:06:41;;;;;;;1.08;0.50;;;8.20;92.10;;;;;;5008755;28;20533;-81
2022/01/03 07:09:07;;;;;;;4.07;0.70;;;8.30;92.10;;;;;;4989496;28;20068;-80
2022/01/03 07:11:33;;;;;;;5.53;0.60;;;8.20;92.20;;;;;;5019443;28;20289;-80
2022/01/03 07:19:27;;;;;;;3.05;0.50;;;8.30;92.20;;;;;;5022864;28;20032;-80
2022/01/03 07:21:52;;;;;;;4.45;0.77;;;8.30;92.30;;;;;;5017812;28;20037;-80
2022/01/03 07:24:18;;;;;;;5.28;0.95;;;8.30;92.30;;;;;;5004004;28;20041;-80
2022/01/03 07:26:43;;;;;;;2.20;0.80;;;8.30;92.30;;;;;;5020292;28;20029;-80
2022/01/03 07:29:09;;;;;;;1.52;0.60;;;8.30;92.40;;;;;;5004951;28;20029;-79
2022/01/03 07:31:34;;;;;;;3.55;0.68;;;8.30;92.40;;;;;;5011379;28;20033;-81
2022/01/03 07:34:00;;;;;;;1.67;0.55;;;8.30;92.40;;;;;;5020241;28;20489;-81
2022/01/03 07:36:27;;;;;;;4.18;0.60;;;8.30;92.40;;;;;;5003030;28;20029;-80
2022/01/03 07:38:52;;;;;;;3.05;0.70;;;8.30;92.40;;;;;;5001483;28;20037;-79
2022/01/03 07:41:18;;;;;;;3.50;1.17;;;8.30;92.40;;;;;;5007035;28;20044;-80
2022/01/03 07:43:44;;;;;;;4.07;0.70;;;8.30;92.50;;;;;;5019337;28;20032;-79
2022/01/03 07:46:09;;;;;;;2.47;0.60;;;8.30;92.50;;;;;;5008921;28;20039;-82
2022/01/03 07:48:35;;;;;;;4.20;0.60;;;8.30;92.50;;;;;;5021422;28;20033;-81
2022/01/03 07:51:00;;;;;;;4.28;0.70;;;8.30;92.50;;;;;;4993924;28;20439;-80
2022/01/03 07:53:27;;;;;;;2.42;0.60;;;8.40;92.50;;;;;;4995467;28;20459;-80
2022/01/03 07:55:52;;;;;;;2.67;0.70;;;8.40;92.50;;;;;;5023435;28;20055;-80
2022/01/03 07:58:18;;;;;;;2.42;0.70;;;8.40;92.60;;;;;;5023236;28;20025;-80
2022/01/03 08:00:44;;;;;;;4.50;0.80;;;8.40;92.60;;;;;;4992733;28;20387;-80
2022/01/03 08:03:10;;;;;;;5.07;0.63;;;8.40;92.60;;;;;;5009064;28;20025;-80
2022/01/03 08:05:35;;;;;;;5.70;0.80;;;8.40;92.60;;;;;;5023619;28;20051;-80
2022/01/03 08:08:03;;;;;;;2.25;0.75;;;8.40;92.60;;;;;;5008442;28;20033;-80
2022/01/03 08:10:28;;;;;;;3.72;1.20;;;8.40;92.60;;;;;;5051388;28;20091;-81
2022/01/03 08:12:54;;;;;;;3.95;0.85;;;8.40;92.60;;;;;;5038250;28;21110;-82
2022/01/03 08:15:20;;;;;;;3.83;1.20;;;8.40;92.60;;;;;;4998544;28;20724;-81
2022/01/03 08:17:46;;;;;;;2.58;0.63;;;8.40;92.60;;;;;;5020341;28;20053;-81
2022/01/03 08:20:12;;;;;;;2.47;0.93;;;8.40;92.60;;;;;;5015653;28;20095;-81
2022/01/03 08:22:37;;;;;;;3.13;0.70;;;8.40;92.60;;;;;;5018221;28;20105;-80
2022/01/03 08:25:03;;;;;;;2.78;0.65;;;8.40;92.60;;;;;;5018022;28;20053;-82
2022/01/03 08:27:29;;;;;;;3.10;0.80;;;8.40;92.70;;;;;;5021456;28;20029;-81
2022/01/03 08:29:54;;;;;;;6.55;0.95;;;8.50;92.70;;;;;;5008227;28;20745;-81
2022/01/03 08:32:20;;;;;;;5.28;1.40;;;8.50;92.70;;;;;;5021433;28;20032;-83
2022/01/03 08:34:46;;;;;;;3.45;1.08;;;8.50;92.70;;;;;;5025262;28;20021;-81
2022/01/03 08:37:11;;;;;;;4.93;1.08;;;8.50;92.70;;;;;;5005775;28;20088;-81
2022/01/03 08:39:37;;;;;;;5.80;0.88;;;8.50;92.70;;;;;;5027280;28;20494;-81
2022/01/03 08:42:03;;;;;;;6.32;1.40;;;8.60;92.80;;;;;;5030446;28;20048;-81
2022/01/03 08:44:29;;;;;;;4.40;1.10;;;8.60;92.80;;;;;;5024875;28;20044;-81
2022/01/03 08:46:54;;;;;;;2.80;0.93;;;8.60;92.80;;;;;;4992036;28;20037;-81
2022/01/03 08:49:20;;;;;;;4.18;1.30;;;8.60;92.80;;;;;;5023993;28;20021;-81
2022/01/03 08:51:45;;;;;;;5.63;0.93;;;8.60;92.80;;;;;;5022253;28;20053;-81
2022/01/03 08:54:11;;;;;;;4.35;0.95;;;8.60;92.80;;;;;;5007555;28;20136;-81
2022/01/03 08:56:38;;;;;;;11.43;1.10;;;8.60;92.80;;;;;;5018721;28;20053;-80
2022/01/03 08:59:03;;;;;;;5.13;1.05;;;8.70;92.80;;;;;;5039578;28;20030;-80
2022/01/03 09:01:29;;;;;;;5.63;1.70;;;8.70;92.80;;;;;;4982514;28;20344;-81
2022/01/03 09:03:54;;;;;;;7.20;1.30;;;8.70;92.80;;;;;;4998499;28;20825;-79
2022/01/03 09:06:20;;;;;;;4.43;1.20;;;8.70;92.80;;;;;;5029419;28;20045;-81
2022/01/03 09:08:46;;;;;;;6.90;1.35;;;8.70;92.80;;;;;;4992522;28;20029;-81
2022/01/03 09:11:11;;;;;;;7.70;1.00;;;8.70;92.70;;;;;;5007454;28;20041;-81
2022/01/03 09:13:37;;;;;;;7.57;1.23;;;8.70;92.70;;;;;;5010192;28;20487;-80
2022/01/03 09:16:06;;;;;;;8.30;1.50;;;8.80;92.70;;;;;;4996284;28;20113;-80
2022/01/03 09:18:33;;;;;;;6.78;1.30;;;8.80;92.70;;;;;;5029514;28;20037;-81
2022/01/03 09:20:58;;;;;;;6.93;1.35;;;8.80;92.70;;;;;;5013715;28;20127;-80
2022/01/03 09:23:28;;;;;;;11.05;1.80;;;8.90;92.70;;;;;;5004514;28;20430;-80
2022/01/03 09:28:51;;;;;;;10.48;2.05;;;9.00;92.70;;;;;;5022045;28;20086;-81
2022/01/03 09:31:25;;;;;;;8.80;1.60;;;9.00;92.70;;;;;;5020656;28;20451;-80
2022/01/03 09:33:52;;;;;;;6.95;1.80;;;9.10;92.70;;;;;;5020596;28;20749;-81
2022/01/03 09:36:17;;;;;;;5.05;1.38;;;9.10;92.70;;;;;;5040330;28;20601;-80
2022/01/03 09:38:43;;;;;;;6.22;1.42;;;9.10;92.60;;;;;;4998499;28;20079;-80
2022/01/03 09:41:08;;;;;;;7.82;1.73;;;9.20;92.60;;;;;;5017089;28;20467;-80
2022/01/03 09:43:48;;;;;;;10.18;1.63;;;9.20;92.60;;;;;;5021150;28;20090;-80
2022/01/03 09:46:18;;;;;;;8.27;1.90;;;9.30;92.60;;;;;;5006287;28;20565;-81
2022/01/03 09:48:45;;;;;;;8.27;2.63;;;9.30;92.50;;;;;;5017505;28;20068;-81
2022/01/03 09:51:11;;;;;;;11.68;3.05;;;9.30;92.50;;;;;;5004325;28;20086;-80
2022/01/03 09:53:37;;;;;;;12.82;2.50;;;9.40;92.50;;;;;;4986448;28;20029;-80
2022/01/03 09:56:03;;;;;;;13.25;3.00;;;9.40;92.50;;;;;;5018046;28;20398;-80
2022/01/03 09:58:28;;;;;;;7.68;2.20;;;9.50;92.50;;;;;;5019738;28;20526;-80
2022/01/03 10:00:54;;;;;;;6.53;1.95;;;9.40;92.50;;;;;;5002892;28;20033;-79
2022/01/03 10:03:19;;;;;;;11.63;2.50;;;9.50;92.40;;;;;;5009750;28;20032;-81
2022/01/03 10:05:45;;;;;;;8.93;2.05;;;9.50;92.40;;;;;;5005712;28;20044;-81
2022/01/03 10:08:10;;;;;;;11.63;2.00;;;9.50;92.40;;;;;;4991612;28;20207;-79
2022/01/03 10:10:36;;;;;;;15.45;1.73;;;9.50;92.30;;;;;;5018942;28;20573;-80
2022/01/03 10:13:02;;;;;;;6.65;1.85;;;9.50;92.30;;;;;;5013436;28;20054;-80
2022/01/03 10:15:27;;;;;;;11.75;2.30;;;9.60;92.30;;;;;;5005937;28;20048;-80
2022/01/03 10:17:53;;;;;;;6.05;1.67;;;9.60;92.30;;;;;;4995411;28;20303;-80
2022/01/03 10:20:18;;;;;;;6.50;1.35;;;9.60;92.20;;;;;;5019108;28;20029;-82
2022/01/03 10:22:44;;;;;;;7.97;1.85;;;9.60;92.20;;;;;;5012528;28;20127;-80
2022/01/03 10:25:11;;;;;;;5.75;1.70;;;9.70;92.20;;;;;;5038991;28;20040;-79
2022/01/03 10:27:44;;;;;;;6.22;1.88;;;9.70;92.20;;;;;;5032338;28;20064;-80
2022/01/03 10:30:10;;;;;;;11.50;3.75;;;9.80;92.20;;;;;;5012635;28;20057;-80
2022/01/03 10:32:36;;;;;;;10.35;4.95;;;9.80;92.10;;;;;;4991466;28;20064;-80
2022/01/03 10:35:17;;;;;;;11.95;5.88;;;9.90;92.20;;;;;;5003552;28;20099;-80
2022/01/03 10:37:42;;;;;;;14.23;6.68;;;9.90;92.10;;;;;;5019415;28;20108;-80
2022/01/03 10:40:18;;;;;;;14.32;4.18;;;10.00;92.10;;;;;;5006647;28;20132;-80
2022/01/03 10:42:43;;;;;;;13.82;2.90;;;10.00;92.10;;;;;;4998339;28;20075;-80
2022/01/03 10:45:09;;;;;;;11.20;3.05;;;10.10;92.10;;;;;;5021114;28;20507;-81
2022/01/03 10:47:34;;;;;;;4.20;1.40;;;10.20;92.00;;;;;;5020260;28;20035;-81
2022/01/03 10:50:15;;;;;;;6.15;1.73;;;10.20;92.00;;;;;;5014380;28;20048;-80
2022/01/03 10:52:41;;;;;;;3.55;1.23;;;10.30;91.90;;;;;;5027473;28;20044;-80
2022/01/03 10:55:33;;;;;;;7.30;1.58;;;10.30;91.90;;;;;;5025519;28;20025;-80
2022/01/03 10:58:09;;;;;;;15.50;3.88;;;10.30;91.80;;;;;;5020098;28;20063;-81
2022/01/03 11:00:39;;;;;;;4.03;1.88;;;10.40;91.80;;;;;;4989921;28;20080;-80
2022/01/03 11:05:49;;;;;;;7.20;2.58;;;10.30;91.60;;;;;;5032036;28;20123;-80
2022/01/03 11:10:59;;;;;;;7.53;2.10;;;10.30;91.60;;;;;;5002466;28;20076;-80
2022/01/03 11:13:24;;;;;;;7.40;1.85;;;10.30;91.60;;;;;;5013410;28;20069;-80
2022/01/03 11:15:56;;;;;;;5.03;1.80;;;10.30;91.60;;;;;;5017589;28;20052;-80
2022/01/03 11:18:29;;;;;;;9.00;2.60;;;10.30;91.60;;;;;;5016045;28;20536;-80
2022/01/03 11:21:13;;;;;;;9.35;2.67;;;10.20;91.60;;;;;;5003744;28;20033;-80
2022/01/03 11:23:39;;;;;;;9.00;1.75;;;10.20;91.60;;;;;;5038425;28;20033;-81
2022/01/03 11:26:14;;;;;;;6.30;1.52;;;10.20;91.60;;;;;;5027305;28;20129;-82
2022/01/03 11:28:40;;;;;;;8.60;2.30;;;10.20;91.60;;;;;;5009722;28;20499;-80
2022/01/03 11:31:06;;;;;;;9.63;2.83;;;10.20;91.60;;;;;;5005015;28;20041;-80
2022/01/03 11:33:34;;;;;;;9.23;2.08;;;10.20;91.60;;;;;;5019597;28;20037;-81
2022/01/03 11:35:59;;;;;;;10.85;2.85;;;10.20;91.60;;;;;;5025999;28;20032;-80
2022/01/03 11:38:26;;;;;;;9.25;2.42;;;10.20;91.60;;;;;;5008616;28;20033;-80
2022/01/03 11:40:52;;;;;;;8.90;2.30;;;10.20;91.60;;;;;;4999540;28;20044;-80
2022/01/03 11:43:18;;;;;;;8.32;2.40;;;10.20;91.70;;;;;;4981471;28;20030;-81
2022/01/03 11:45:43;;;;;;;15.80;3.60;;;10.20;91.60;;;;;;5019736;28;20588;-81
2022/01/03 11:48:10;;;;;;;12.18;4.00;;;10.20;91.60;;;;;;5005159;28;20135;-79
2022/01/03 11:50:37;;;;;;;11.32;3.05;;;10.20;91.70;;;;;;5026800;28;20040;-80
2022/01/03 11:53:04;;;;;;;12.18;3.92;;;10.20;91.70;;;;;;4995140;28;20037;-81
2022/01/03 11:55:29;;;;;;;11.43;3.22;;;10.20;91.60;;;;;;5004469;28;20033;-81
2022/01/03 12:05:56;;;;;;;10.70;3.03;;;10.20;91.60;;;;;;5024598;28;20630;-80
2022/01/03 12:08:34;;;;;;;9.63;2.00;;;10.20;91.60;;;;;;5026187;28;20035;-80
2022/01/03 12:11:01;;;;;;;6.25;2.10;;;10.20;91.60;;;;;;5002908;28;20095;-80
2022/01/03 12:13:48;;;;;;;10.35;2.10;;;10.20;91.70;;;;;;5016836;28;20500;-82
2022/01/03 12:16:13;;;;;;;10.48;2.25;;;10.20;91.70;;;;;;5019888;28;20559;-81
2022/01/03 12:18:39;;;;;;;5.30;1.77;;;10.20;91.70;;;;;;5002684;28;20036;-83
2022/01/03 12:21:05;;;;;;;8.15;1.83;;;10.20;91.70;;;;;;5019529;28;20503;-80
2022/01/03 12:23:41;;;;;;;6.85;1.50;;;10.20;91.70;;;;;;5003923;28;20034;-81
2022/01/03 12:26:14;;;;;;;8.70;1.60;;;10.20;91.70;;;;;;5024455;28;21973;-81
2022/01/03 12:29:05;;;;;;;11.38;1.80;;;10.20;91.70;;;;;;5019876;28;20041;-81
2022/01/03 12:32:10;;;;;;;8.20;1.83;;;10.20;91.80;;;;;;5011062;28;20485;-81
2022/01/03 12:34:38;;;;;;;6.28;1.42;;;10.20;91.80;;;;;;5005324;28;20037;-80
2022/01/03 12:37:30;;;;;;;7.22;1.50;;;10.20;91.70;;;;;;5017331;28;20064;-80
2022/01/03 12:40:05;;;;;;;7.10;2.22;;;10.20;91.80;;;;;;5016436;28;20033;-81
2022/01/03 12:42:48;;;;;;;5.25;1.65;;;10.20;91.80;;;;;;5043298;28;20531;-81
2022/01/03 12:45:29;;;;;;;8.65;1.83;;;10.20;91.80;;;;;;5010618;28;20124;-81
2022/01/03 12:48:10;;;;;;;10.43;2.30;;;10.20;91.80;;;;;;5045556;28;20052;-80
2022/01/03 12:50:45;;;;;;;9.10;2.00;;;10.20;91.80;;;;;;4997418;28;20064;-81
2022/01/03 12:53:23;;;;;;;9.00;2.30;;;10.20;91.80;;;;;;5040677;28;20033;-81
2022/01/03 12:55:50;;;;;;;10.70;3.65;;;10.20;91.90;;;;;;5021631;28;20033;-82
2022/01/03 12:58:18;;;;;;;11.98;3.40;;;10.20;91.80;;;;;;5002630;28;20081;-81
2022/01/03 13:00:44;;;;;;;8.40;2.33;;;10.20;91.80;;;;;;5018514;28;20088;-81
2022/01/03 13:03:21;;;;;;;5.30;2.20;;;10.20;91.80;;;;;;5013998;28;20104;-80
2022/01/03 13:06:14;;;;;;;11.13;2.00;;;10.20;91.80;;;;;;5021734;28;20041;-80
2022/01/03 13:08:52;;;;;;;6.65;2.22;;;10.30;91.90;;;;;;5046048;28;20041;-81
2022/01/03 13:11:27;;;;;;;7.45;2.80;;;10.30;91.80;;;;;;5025551;28;20029;-82
2022/01/03 13:14:00;;;;;;;7.63;1.50;;;10.30;91.90;;;;;;5013795;28;20470;-80
2022/01/03 13:16:29;;;;;;;11.40;2.25;;;10.30;91.80;;;;;;5054327;28;20032;-81
2022/01/03 13:19:02;;;;;;;10.65;1.60;;;10.30;91.80;;;;;;5004160;28;20039;-80
2022/01/03 13:21:29;;;;;;;9.15;2.08;;;10.30;91.80;;;;;;5038309;28;20115;-81